Time;durP1;ratioP1;P1;durP2;ratioP2;P2;SDS_P1;SDS_P2;PMS_P1;PMS_P2;Temp;Humidity;BMP_temperature;BMP_pressure;BME280_temperature;BME280_humidity;BME280_pressure;Samples;Min_cycle;Max_cycle;Signal;HPM_P1;HPM_P2
2023/07/09 00:00:56;;;;;;;;;43.33;35.00;;;;;-147.70;100.00;61350.09;5058438;28;45571;-70
2023/07/09 00:03:22;;;;;;;;;43.67;34.33;;;;;-147.70;100.00;61350.09;5058149;28;45513;-71
2023/07/09 00:05:49;;;;;;;;;43.00;35.00;;;;;-147.70;100.00;61350.09;5058595;28;45416;-71
2023/07/09 00:08:26;;;;;;;;;36.67;32.33;;;;;-147.70;100.00;61350.09;5058301;28;45623;-71
2023/07/09 00:10:52;;;;;;;;;37.00;32.33;;;;;-147.70;100.00;61350.09;5058614;28;45282;-71
2023/07/09 00:13:17;;;;;;;;;37.00;31.33;;;;;-147.70;100.00;61350.09;5057939;28;45344;-71
2023/07/09 00:15:43;;;;;;;;;35.33;32.00;;;;;-147.70;100.00;61350.09;5057732;28;45421;-71
2023/07/09 00:18:09;;;;;;;;;35.33;30.67;;;;;-147.70;100.00;61350.09;5057865;28;45951;-71
2023/07/09 00:20:35;;;;;;;;;36.33;31.00;;;;;-147.70;100.00;61350.09;5058012;28;45424;-71
2023/07/09 00:23:00;;;;;;;;;37.33;32.33;;;;;-147.70;100.00;61350.09;5057399;28;46100;-72
2023/07/09 00:25:25;;;;;;;;;34.00;31.00;;;;;-147.70;100.00;61350.09;5057641;28;45455;-71
2023/07/09 00:27:51;;;;;;;;;42.67;33.33;;;;;-147.70;100.00;61350.09;5058200;28;45335;-71
2023/07/09 00:30:19;;;;;;;;;42.33;33.33;;;;;-147.70;100.00;61350.09;5058017;28;45423;-72
2023/07/09 00:32:45;;;;;;;;;33.67;31.00;;;;;-147.70;100.00;61350.09;5058159;28;45391;-71
2023/07/09 00:35:15;;;;;;;;;33.33;28.67;;;;;-147.70;100.00;61350.09;5057867;28;45233;-71
2023/07/09 00:37:44;;;;;;;;;37.67;30.00;;;;;-147.70;100.00;61350.09;5058124;28;45705;-71
2023/07/09 00:40:18;;;;;;;;;32.67;30.33;;;;;-147.70;100.00;61350.09;5057976;28;45241;-71
2023/07/09 00:42:49;;;;;;;;;35.33;29.67;;;;;-147.70;100.00;61350.09;5057662;28;46529;-71
2023/07/09 00:45:27;;;;;;;;;35.33;30.67;;;;;-147.70;100.00;61350.09;5057490;28;45410;-71
2023/07/09 00:48:02;;;;;;;;;41.00;31.67;;;;;-147.70;100.00;61350.09;5057934;28;45440;-71
2023/07/09 00:50:41;;;;;;;;;43.67;32.67;;;;;-147.70;100.00;61350.09;5057731;28;45430;-71
2023/07/09 00:53:31;;;;;;;;;40.00;35.00;;;;;-147.70;100.00;61350.09;5057375;28;46663;-71
2023/07/09 00:56:05;;;;;;;;;34.33;30.33;;;;;-147.70;100.00;61350.09;5034200;28;45346;-71
2023/07/09 00:58:32;;;;;;;;;31.33;30.00;;;;;-147.70;100.00;61350.09;5035135;28;45524;-72
2023/07/09 01:01:07;;;;;;;;;32.67;29.67;;;;;-147.70;100.00;61350.09;5033947;28;45406;-71
2023/07/09 01:03:40;;;;;;;;;34.00;30.67;;;;;-147.70;100.00;61350.09;5034734;28;47230;-71
2023/07/09 01:06:06;;;;;;;;;42.33;33.33;;;;;-147.70;100.00;61350.09;5035048;28;45441;-71
2023/07/09 01:08:34;;;;;;;;;30.67;29.67;;;;;-147.70;100.00;61350.09;5035153;28;45463;-71
2023/07/09 01:11:00;;;;;;;;;31.33;30.00;;;;;-147.70;100.00;61350.09;5035196;28;45518;-71
2023/07/09 01:13:28;;;;;;;;;34.67;32.67;;;;;-147.70;100.00;61350.09;5034366;28;46545;-71
2023/07/09 01:15:55;;;;;;;;;35.00;31.67;;;;;-147.70;100.00;61350.09;5034901;28;45504;-70
2023/07/09 01:18:21;;;;;;;;;40.67;32.67;;;;;-147.70;100.00;61350.09;5034975;28;45302;-70
2023/07/09 01:20:47;;;;;;;;;32.00;28.33;;;;;-147.70;100.00;61350.09;5035185;28;45315;-71
2023/07/09 01:23:12;;;;;;;;;42.67;32.67;;;;;-147.70;100.00;61350.09;5034517;28;45610;-71
2023/07/09 01:25:43;;;;;;;;;34.33;31.33;;;;;-147.70;100.00;61350.09;5034638;28;45552;-72
2023/07/09 01:28:09;;;;;;;;;40.33;32.33;;;;;-147.70;100.00;61350.09;5034997;28;45542;-72
2023/07/09 01:30:37;;;;;;;;;42.67;34.00;;;;;-147.70;100.00;61350.09;5035010;28;45477;-70
2023/07/09 01:33:03;;;;;;;;;37.33;32.33;;;;;-147.70;100.00;61350.09;5046534;28;46156;-71
2023/07/09 01:35:31;;;;;;;;;41.00;34.00;;;;;-147.70;100.00;61350.09;5057023;28;45420;-71
2023/07/09 01:37:57;;;;;;;;;40.67;34.33;;;;;-147.70;100.00;61350.09;5057299;28;45268;-71
2023/07/09 01:40:25;;;;;;;;;38.33;33.33;;;;;-147.70;100.00;61350.09;5057116;28;45358;-71
2023/07/09 01:42:51;;;;;;;;;47.67;37.33;;;;;-147.70;100.00;61350.09;5057195;28;46692;-71
2023/07/09 01:45:17;;;;;;;;;45.33;36.67;;;;;-147.70;100.00;61350.09;5056513;28;45309;-72
2023/07/09 01:47:43;;;;;;;;;47.00;32.67;;;;;-147.70;100.00;61350.09;5057170;28;45384;-71
2023/07/09 01:50:10;;;;;;;;;42.33;34.00;;;;;-147.70;100.00;61350.09;5057149;28;45471;-71
2023/07/09 01:52:38;;;;;;;;;42.67;33.33;;;;;-147.70;100.00;61350.09;5056630;28;46483;-72
2023/07/09 01:55:04;;;;;;;;;37.00;32.00;;;;;-147.70;100.00;61350.09;5056951;28;45272;-71
2023/07/09 01:57:33;;;;;;;;;40.00;33.00;;;;;-147.70;100.00;61350.09;5056876;28;45356;-72
2023/07/09 02:00:00;;;;;;;;;44.67;33.67;;;;;-147.70;100.00;61350.09;5056805;28;45502;-72
2023/07/09 02:02:26;;;;;;;;;37.00;32.67;;;;;-147.70;100.00;61350.09;5056359;28;46316;-72
2023/07/09 02:04:55;;;;;;;;;47.00;36.67;;;;;-147.70;100.00;61350.09;5056512;28;45411;-72
2023/07/09 02:07:23;;;;;;;;;41.33;36.00;;;;;-147.70;100.00;61350.09;5057127;28;45470;-72
2023/07/09 02:09:48;;;;;;;;;44.00;36.67;;;;;-147.70;100.00;61350.09;5060715;28;45435;-72
2023/07/09 02:12:15;;;;;;;;;42.67;37.33;;;;;-147.70;100.00;61350.09;5060207;28;45415;-71
2023/07/09 02:14:42;;;;;;;;;47.33;38.00;;;;;-147.70;100.00;61350.09;5060206;28;45532;-72
2023/07/09 02:17:09;;;;;;;;;41.00;36.67;;;;;-147.70;100.00;61350.09;5060054;28;45447;-72
2023/07/09 02:19:35;;;;;;;;;40.67;34.67;;;;;-147.70;100.00;61350.09;5060241;28;45525;-71
2023/07/09 02:22:01;;;;;;;;;45.33;36.67;;;;;-147.70;100.00;61350.09;5059997;28;46470;-72
2023/07/09 02:24:27;;;;;;;;;47.33;37.67;;;;;-147.70;100.00;61350.09;5060022;28;45336;-72
2023/07/09 02:26:54;;;;;;;;;48.67;40.00;;;;;-147.70;100.00;61350.09;5060108;28;45416;-72
2023/07/09 02:29:19;;;;;;;;;40.67;33.33;;;;;-147.70;100.00;61350.09;5059868;28;45412;-72
2023/07/09 02:31:45;;;;;;;;;46.33;35.67;;;;;-147.70;100.00;61350.09;5059685;28;46325;-72
2023/07/09 02:34:11;;;;;;;;;35.00;31.33;;;;;-147.70;100.00;61350.09;5060071;28;45357;-72
2023/07/09 02:36:36;;;;;;;;;43.00;35.67;;;;;-147.70;100.00;61350.09;5059362;28;45436;-71
2023/07/09 02:39:02;;;;;;;;;46.00;36.33;;;;;-147.70;100.00;61350.09;5060302;28;45213;-71
2023/07/09 02:41:27;;;;;;;;;45.67;35.67;;;;;-147.70;100.00;61350.09;5059592;28;46380;-71
2023/07/09 02:43:53;;;;;;;;;40.33;32.67;;;;;-147.70;100.00;61350.09;5059430;28;45311;-72
2023/07/09 02:46:18;;;;;;;;;44.67;36.00;;;;;-147.70;100.00;61350.09;5059976;28;45356;-72
2023/07/09 02:48:44;;;;;;;;;41.33;36.67;;;;;-147.70;100.00;61350.09;5060016;28;45606;-72
2023/07/09 02:51:09;;;;;;;;;38.67;34.00;;;;;-147.70;100.00;61350.09;5059661;28;46161;-71
2023/07/09 02:53:35;;;;;;;;;46.00;37.33;;;;;-147.70;100.00;61350.09;5059432;28;45329;-71
2023/07/09 02:56:00;;;;;;;;;48.33;37.33;;;;;-147.70;100.00;61350.09;5058540;28;45444;-71
2023/07/09 02:58:25;;;;;;;;;49.33;39.67;;;;;-147.70;100.00;61350.09;5059881;28;45336;-72
2023/07/09 03:00:54;;;;;;;;;41.33;36.00;;;;;-147.70;100.00;61350.09;5059388;28;46498;-71
2023/07/09 03:03:20;;;;;;;;;49.00;39.00;;;;;-147.70;100.00;61350.09;5059261;28;45288;-72
2023/07/09 03:05:46;;;;;;;;;46.00;37.00;;;;;-147.70;100.00;61350.09;5059288;28;45170;-72
2023/07/09 03:08:12;;;;;;;;;45.00;35.00;;;;;-147.70;100.00;61350.09;5059627;28;45681;-72
2023/07/09 03:10:38;;;;;;;;;43.00;34.67;;;;;-147.70;100.00;61350.09;5059282;28;46201;-72
2023/07/09 03:13:03;;;;;;;;;45.67;35.00;;;;;-147.70;100.00;61350.09;5059353;28;45214;-72
2023/07/09 03:15:31;;;;;;;;;40.00;33.00;;;;;-147.70;100.00;61350.09;5059145;28;45930;-72
2023/07/09 03:17:56;;;;;;;;;42.33;36.33;;;;;-147.70;100.00;61350.09;5059699;28;45324;-72
2023/07/09 03:20:22;;;;;;;;;48.33;35.00;;;;;-147.70;100.00;61350.09;5058066;28;46280;-72
2023/07/09 03:22:47;;;;;;;;;39.00;34.33;;;;;-147.70;100.00;61350.09;5059448;28;45354;-72
2023/07/09 03:25:12;;;;;;;;;32.67;30.00;;;;;-147.70;100.00;61350.09;5059040;28;45276;-72
2023/07/09 03:27:38;;;;;;;;;40.67;34.00;;;;;-147.70;100.00;61350.09;5059369;28;45305;-72
2023/07/09 03:30:03;;;;;;;;;41.00;34.67;;;;;-147.70;100.00;61350.09;5058915;28;45406;-72
2023/07/09 03:32:29;;;;;;;;;40.00;33.00;;;;;-147.70;100.00;61350.09;5058861;28;45245;-72
2023/07/09 03:34:55;;;;;;;;;39.67;33.67;;;;;-147.70;100.00;61350.09;5059409;28;45396;-72
2023/07/09 03:37:20;;;;;;;;;38.67;33.33;;;;;-147.70;100.00;61350.09;5059152;28;45269;-72
2023/07/09 03:39:46;;;;;;;;;35.67;31.33;;;;;-147.70;100.00;61350.09;5058860;28;45416;-72
2023/07/09 03:42:11;;;;;;;;;40.67;33.33;;;;;-147.70;100.00;61350.09;5058759;28;45470;-72
2023/07/09 03:44:36;;;;;;;;;40.00;33.33;;;;;-147.70;100.00;61350.09;5058601;28;45289;-72
2023/07/09 03:47:02;;;;;;;;;41.67;31.00;;;;;-147.70;100.00;61350.09;5059245;28;45460;-72
2023/07/09 03:49:27;;;;;;;;;44.67;36.67;;;;;-147.70;100.00;61350.09;5058525;28;46883;-72
2023/07/09 03:51:52;;;;;;;;;40.33;35.33;;;;;-147.70;100.00;61350.09;5058883;28;45461;-71
2023/07/09 03:54:18;;;;;;;;;41.67;33.67;;;;;-147.70;100.00;61350.09;5058963;28;45487;-72
2023/07/09 03:56:44;;;;;;;;;39.33;35.00;;;;;-147.70;100.00;61350.09;5058838;28;45383;-72
2023/07/09 03:59:09;;;;;;;;;46.33;34.67;;;;;-147.70;100.00;61350.09;5058548;28;46440;-71
2023/07/09 04:01:34;;;;;;;;;41.00;34.33;;;;;-147.70;100.00;61350.09;5058008;28;45344;-71
2023/07/09 04:04:00;;;;;;;;;51.67;39.33;;;;;-147.70;100.00;61350.09;5058462;28;45462;-71
2023/07/09 04:06:25;;;;;;;;;48.67;39.33;;;;;-147.70;100.00;61350.09;5058791;28;45234;-71
2023/07/09 04:08:50;;;;;;;;;54.75;42.75;;;;;-147.70;100.00;61350.09;5058398;28;46452;-72
2023/07/09 04:11:16;;;;;;;;;43.67;35.33;;;;;-147.70;100.00;61350.09;5058421;28;45401;-72
2023/07/09 04:13:41;;;;;;;;;43.00;36.33;;;;;-147.70;100.00;61350.09;5058614;28;45423;-72
2023/07/09 04:16:06;;;;;;;;;48.67;40.33;;;;;-147.70;100.00;61350.09;5058425;28;45360;-72
2023/07/09 04:18:32;;;;;;;;;48.67;39.33;;;;;-147.70;100.00;61350.09;5058287;28;45676;-72
2023/07/09 04:20:57;;;;;;;;;45.00;36.33;;;;;-147.70;100.00;61350.09;5058305;28;45266;-72
2023/07/09 04:23:22;;;;;;;;;42.00;34.67;;;;;-147.70;100.00;61350.09;5058453;28;45443;-72
2023/07/09 04:25:48;;;;;;;;;38.00;33.67;;;;;-147.70;100.00;61350.09;5058155;28;45561;-72
2023/07/09 04:28:14;;;;;;;;;34.67;32.00;;;;;-147.70;100.00;61350.09;5058194;28;46326;-71
2023/07/09 04:30:47;;;;;;;;;42.67;34.00;;;;;-147.70;100.00;61350.09;5057882;28;45319;-71
2023/07/09 04:33:13;;;;;;;;;32.00;27.67;;;;;-147.70;100.00;61350.09;5057904;28;45442;-71
2023/07/09 04:35:38;;;;;;;;;28.33;26.00;;;;;-147.70;100.00;61350.09;5058348;28;45288;-71
2023/07/09 04:38:03;;;;;;;;;28.00;25.67;;;;;-147.70;100.00;61350.09;5058060;28;45325;-72
2023/07/09 04:40:29;;;;;;;;;29.33;27.33;;;;;-147.70;100.00;61350.09;5058080;28;45313;-72
2023/07/09 04:42:54;;;;;;;;;27.33;25.67;;;;;-147.70;100.00;61350.09;5058119;28;45790;-72
2023/07/09 04:45:19;;;;;;;;;28.00;25.67;;;;;-147.70;100.00;61350.09;5057619;28;45397;-72
2023/07/09 04:47:45;;;;;;;;;22.67;22.00;;;;;-147.70;100.00;61350.09;5057895;28;46649;-72
2023/07/09 04:50:11;;;;;;;;;22.33;19.33;;;;;-147.70;100.00;61350.09;5057892;28;45186;-72
2023/07/09 04:52:36;;;;;;;;;23.00;19.33;;;;;-147.70;100.00;61350.09;5058081;28;45382;-72
2023/07/09 04:55:02;;;;;;;;;23.33;19.33;;;;;-147.70;100.00;61350.09;5058021;28;45514;-72
2023/07/09 04:57:28;;;;;;;;;20.33;19.33;;;;;-147.70;100.00;61350.09;5057665;28;46262;-72
2023/07/09 04:59:53;;;;;;;;;25.33;20.33;;;;;-147.70;100.00;61350.09;5057869;28;45248;-72
2023/07/09 05:02:19;;;;;;;;;25.00;22.00;;;;;-147.70;100.00;61350.09;5057521;28;45314;-72
2023/07/09 05:04:44;;;;;;;;;19.67;18.67;;;;;-147.70;100.00;61350.09;5045693;28;45508;-72
2023/07/09 05:07:09;;;;;;;;;22.67;18.00;;;;;-147.70;100.00;61350.09;5037251;28;46092;-72
2023/07/09 05:09:35;;;;;;;;;22.33;21.33;;;;;-147.70;100.00;61350.09;5037277;28;45395;-72
2023/07/09 05:12:01;;;;;;;;;23.00;19.33;;;;;-147.70;100.00;61350.09;5037734;28;45361;-72
2023/07/09 05:14:27;;;;;;;;;23.67;20.67;;;;;-147.70;100.00;61350.09;5037513;28;45283;-72
2023/07/09 05:16:53;;;;;;;;;17.00;16.33;;;;;-147.70;100.00;61350.09;5037099;28;46901;-72
2023/07/09 05:19:18;;;;;;;;;22.00;18.67;;;;;-147.70;100.00;61350.09;5037126;28;45329;-72
2023/07/09 05:21:44;;;;;;;;;21.67;20.00;;;;;-147.70;100.00;61350.09;5037452;28;45245;-72
2023/07/09 05:24:09;;;;;;;;;20.67;17.67;;;;;-147.70;100.00;61350.09;5037447;28;45346;-72
2023/07/09 05:26:34;;;;;;;;;16.67;16.67;;;;;-147.70;100.00;61350.09;5037027;28;46441;-72
2023/07/09 05:29:01;;;;;;;;;24.67;18.67;;;;;-147.70;100.00;61350.09;5037397;28;45342;-71
2023/07/09 05:31:26;;;;;;;;;20.00;17.00;;;;;-147.70;100.00;61350.09;5036974;28;45375;-72
2023/07/09 05:33:52;;;;;;;;;18.00;16.00;;;;;-147.70;100.00;61350.09;5037390;28;45431;-72
2023/07/09 05:36:19;;;;;;;;;18.67;17.00;;;;;-147.70;100.00;61350.09;5037149;28;45711;-72
2023/07/09 05:38:46;;;;;;;;;20.67;18.67;;;;;-147.70;100.00;61350.09;5036893;28;45437;-72
2023/07/09 05:41:12;;;;;;;;;18.00;16.00;;;;;-147.70;100.00;61350.09;5036923;28;45324;-72
2023/07/09 05:43:37;;;;;;;;;14.67;13.33;;;;;-147.70;100.00;61350.09;5036437;28;45337;-72
2023/07/09 05:46:03;;;;;;;;;18.00;15.67;;;;;-147.70;100.00;61350.09;5036716;28;45447;-72
2023/07/09 05:48:28;;;;;;;;;14.00;13.67;;;;;-147.70;100.00;61350.09;5036986;28;45341;-72
2023/07/09 05:50:57;;;;;;;;;12.33;11.33;;;;;-147.70;100.00;61350.09;5037620;28;45428;-72
2023/07/09 05:53:23;;;;;;;;;13.33;11.00;;;;;-147.70;100.00;61350.09;5037025;28;45317;-72
2023/07/09 05:55:48;;;;;;;;;16.00;13.00;;;;;-147.70;100.00;61350.09;5036806;28;46426;-71
2023/07/09 05:58:13;;;;;;;;;15.67;11.67;;;;;-147.70;100.00;61350.09;5036843;28;45795;-72
2023/07/09 06:00:41;;;;;;;;;16.00;13.00;;;;;-147.70;100.00;61350.09;5036873;28;45314;-71
2023/07/09 06:03:07;;;;;;;;;12.33;12.33;;;;;-147.70;100.00;61350.09;5036542;28;45369;-72
2023/07/09 06:05:33;;;;;;;;;10.33;10.33;;;;;-147.70;100.00;61350.09;5036321;28;45573;-72
2023/07/09 06:07:59;;;;;;;;;14.00;12.33;;;;;-147.70;100.00;61350.09;5036779;28;45341;-71
2023/07/09 06:10:25;;;;;;;;;12.33;11.67;;;;;-147.70;100.00;61350.09;5036745;28;45523;-71
2023/07/09 06:12:50;;;;;;;;;12.00;11.00;;;;;-147.70;100.00;61350.09;5036984;28;45665;-72
2023/07/09 06:15:16;;;;;;;;;13.00;12.33;;;;;-147.70;100.00;61350.09;5035660;28;46342;-71
2023/07/09 06:17:41;;;;;;;;;13.00;13.00;;;;;-147.70;100.00;61350.09;5036232;28;45440;-72
2023/07/09 06:20:08;;;;;;;;;12.67;12.67;;;;;-147.70;100.00;61350.09;5036816;28;45769;-71
2023/07/09 06:22:33;;;;;;;;;8.67;8.67;;;;;-147.70;100.00;61350.09;5036463;28;45540;-71
2023/07/09 06:24:59;;;;;;;;;11.67;10.00;;;;;-147.70;100.00;61350.09;5036346;28;45590;-72
2023/07/09 06:27:24;;;;;;;;;17.67;12.67;;;;;-147.70;100.00;61350.09;5036090;28;45343;-72
2023/07/09 06:29:49;;;;;;;;;12.00;10.00;;;;;-147.70;100.00;61350.09;5036551;28;45289;-71
2023/07/09 06:32:15;;;;;;;;;14.00;12.33;;;;;-147.70;100.00;61350.09;5036509;28;45317;-71
2023/07/09 06:34:40;;;;;;;;;11.67;9.33;;;;;-147.70;100.00;61350.09;5036294;28;46815;-72
2023/07/09 06:37:05;;;;;;;;;15.67;12.33;;;;;-147.70;100.00;61350.09;5036536;28;45349;-72
2023/07/09 06:39:31;;;;;;;;;14.00;13.67;;;;;-147.70;100.00;61350.09;5036152;28;45605;-71
2023/07/09 06:41:56;;;;;;;;;14.67;14.33;;;;;-147.70;100.00;61350.09;5036431;28;45355;-72
2023/07/09 06:44:22;;;;;;;;;18.67;16.67;;;;;-147.70;100.00;61350.09;5036211;28;46374;-71
2023/07/09 06:46:48;;;;;;;;;16.67;15.33;;;;;-147.70;100.00;61350.09;5036161;28;45453;-70
2023/07/09 06:49:13;;;;;;;;;14.33;13.67;;;;;-147.70;100.00;61350.09;5036313;28;45313;-71
2023/07/09 06:51:39;;;;;;;;;16.00;13.67;;;;;-147.70;100.00;61350.09;5036046;28;45361;-72
2023/07/09 06:54:05;;;;;;;;;16.00;15.00;;;;;-147.70;100.00;61350.09;5036048;28;45329;-69
2023/07/09 06:56:31;;;;;;;;;13.67;13.33;;;;;-147.70;100.00;61350.09;5039700;28;45281;-71
2023/07/09 06:58:57;;;;;;;;;18.33;15.00;;;;;-147.70;100.00;61350.09;5039566;28;45878;-72
2023/07/09 07:01:22;;;;;;;;;15.33;13.33;;;;;-147.70;100.00;61350.09;5039220;28;45151;-74
2023/07/09 07:03:48;;;;;;;;;15.33;12.33;;;;;-147.70;100.00;61350.09;5039080;28;46763;-73
2023/07/09 07:06:13;;;;;;;;;12.67;12.33;;;;;-147.70;100.00;61350.09;5039232;28;45399;-73
2023/07/09 07:08:38;;;;;;;;;12.33;9.67;;;;;-147.70;100.00;61350.09;5039717;28;45480;-73
2023/07/09 07:11:05;;;;;;;;;12.00;11.00;;;;;-147.70;100.00;61350.09;5038389;28;45199;-73
2023/07/09 07:13:40;;;;;;;;;11.00;10.00;;;;;-147.70;100.00;61350.09;5038600;28;46681;-72
2023/07/09 07:16:09;;;;;;;;;14.67;13.00;;;;;-147.70;100.00;61350.09;5038875;28;45479;-76
2023/07/09 07:18:35;;;;;;;;;16.67;11.00;;;;;-147.70;100.00;61350.09;5038997;28;45602;-77
2023/07/09 07:21:00;;;;;;;;;16.00;13.67;;;;;-147.70;100.00;61350.09;5039442;28;45470;-72
2023/07/09 07:23:26;;;;;;;;;12.33;12.33;;;;;-147.70;100.00;61350.09;5038730;28;46080;-72
2023/07/09 07:25:51;;;;;;;;;16.33;13.00;;;;;-147.70;100.00;61350.09;5038707;28;45335;-71
2023/07/09 07:28:17;;;;;;;;;12.67;11.67;;;;;-147.70;100.00;61350.09;5039095;28;45376;-72
2023/07/09 07:30:43;;;;;;;;;17.00;14.00;;;;;-147.70;100.00;61350.09;5039198;28;45304;-73
2023/07/09 07:33:10;;;;;;;;;14.33;13.00;;;;;-147.70;100.00;61350.09;5038550;28;47486;-73
2023/07/09 07:35:36;;;;;;;;;11.33;9.33;;;;;-147.70;100.00;61350.09;5038622;28;45437;-72
2023/07/09 07:38:01;;;;;;;;;18.00;15.67;;;;;-147.70;100.00;61350.09;5038806;28;45367;-77
2023/07/09 07:40:27;;;;;;;;;10.67;8.67;;;;;-147.70;100.00;61350.09;5038973;28;45940;-72
2023/07/09 07:42:52;;;;;;;;;12.33;11.00;;;;;-147.70;100.00;61350.09;5038643;28;46556;-73
2023/07/09 07:45:17;;;;;;;;;7.00;7.00;;;;;-147.70;100.00;61350.09;5038469;28;45385;-72
2023/07/09 07:47:43;;;;;;;;;13.00;11.00;;;;;-147.70;100.00;61350.09;5038605;28;45424;-72
2023/07/09 07:50:09;;;;;;;;;15.33;12.67;;;;;-147.70;100.00;61350.09;5038808;28;45311;-72
2023/07/09 07:52:37;;;;;;;;;12.00;12.00;;;;;-147.70;100.00;61350.09;5038328;28;45526;-73
2023/07/09 07:55:07;;;;;;;;;10.00;10.00;;;;;-147.70;100.00;61350.09;5038282;28;45262;-75
2023/07/09 07:57:32;;;;;;;;;11.00;9.33;;;;;-147.70;100.00;61350.09;5058082;28;45393;-80
2023/07/09 07:59:58;;;;;;;;;12.33;10.67;;;;;-147.70;100.00;61350.09;5058313;28;45432;-75
2023/07/09 08:02:24;;;;;;;;;12.33;11.00;;;;;-147.70;100.00;61350.09;5057939;28;45504;-78
2023/07/09 08:04:50;;;;;;;;;11.33;11.33;;;;;-147.70;100.00;61350.09;5057877;28;45769;-75
2023/07/09 08:07:18;;;;;;;;;9.00;9.00;;;;;-147.70;100.00;61350.09;5057840;28;45455;-72
2023/07/09 08:09:44;;;;;;;;;12.67;12.67;;;;;-147.70;100.00;61350.09;5058751;28;45423;-73
2023/07/09 08:12:11;;;;;;;;;14.00;11.33;;;;;-147.70;100.00;61350.09;5052806;28;45357;-71
2023/07/09 08:14:38;;;;;;;;;8.67;8.33;;;;;-147.70;100.00;61350.09;5037598;28;45460;-76
2023/07/09 08:17:04;;;;;;;;;9.67;9.67;;;;;-147.70;100.00;61350.09;5037707;28;45700;-72
2023/07/09 08:19:30;;;;;;;;;16.67;14.67;;;;;-147.70;100.00;61350.09;5056502;28;45360;-73
2023/07/09 08:21:55;;;;;;;;;12.00;12.00;;;;;-147.70;100.00;61350.09;5057801;28;45516;-69
2023/07/09 08:24:20;;;;;;;;;14.33;12.67;;;;;-147.70;100.00;61350.09;5049680;28;45333;-75
2023/07/09 08:26:46;;;;;;;;;17.67;13.33;;;;;-147.70;100.00;61350.09;5041286;28;45508;-78
2023/07/09 08:29:11;;;;;;;;;13.67;13.00;;;;;-147.70;100.00;61350.09;5058106;28;45376;-72
2023/07/09 08:31:36;;;;;;;;;17.00;13.67;;;;;-147.70;100.00;61350.09;5057659;28;45508;-72
2023/07/09 08:34:02;;;;;;;;;10.33;10.00;;;;;-147.70;100.00;61350.09;5057572;28;45402;-73
2023/07/09 08:36:27;;;;;;;;;12.00;10.00;;;;;-147.70;100.00;61350.09;5057916;28;45352;-79
2023/07/09 08:38:52;;;;;;;;;12.67;11.00;;;;;-147.70;100.00;61350.09;5058015;28;45530;-73
2023/07/09 08:41:36;;;;;;;;;20.00;20.00;;;;;-147.70;100.00;61350.09;5057683;28;46445;-77
2023/07/09 08:44:25;;;;;;;;;14.67;12.00;;;;;-147.70;100.00;61350.09;5057138;28;45318;-71
2023/07/09 08:47:00;;;;;;;;;15.00;14.33;;;;;-147.70;100.00;61350.09;5057760;28;45382;-76
2023/07/09 08:49:43;;;;;;;;;15.00;11.67;;;;;-147.70;100.00;61350.09;5057742;28;45324;-71
2023/07/09 08:52:17;;;;;;;;;12.67;10.00;;;;;-147.70;100.00;61350.09;5057281;28;45389;-72
2023/07/09 08:54:47;;;;;;;;;11.67;10.33;;;;;-147.70;100.00;61350.09;5057334;28;45332;-77
2023/07/09 08:57:28;;;;;;;;;14.00;14.00;;;;;-147.70;100.00;61350.09;5057610;28;45396;-71
2023/07/09 09:00:22;;;;;;;;;14.00;12.67;;;;;-147.70;100.00;61350.09;5057510;28;45430;-72
2023/07/09 09:02:56;;;;;;;;;15.00;11.67;;;;;-147.70;100.00;61350.09;5056914;28;47793;-72
2023/07/09 09:05:23;;;;;;;;;12.67;12.67;;;;;-147.70;100.00;61350.09;5057235;28;45258;-72
2023/07/09 09:08:11;;;;;;;;;11.00;9.33;;;;;-147.70;100.00;61350.09;5057386;28;45475;-72
2023/07/09 09:10:48;;;;;;;;;13.67;11.00;;;;;-147.70;100.00;61350.09;5057539;28;45457;-72
2023/07/09 09:13:16;;;;;;;;;11.33;11.33;;;;;-147.70;100.00;61350.09;5057040;28;46724;-72
2023/07/09 09:15:46;;;;;;;;;13.33;11.00;;;;;-147.70;100.00;61350.09;5057605;28;45257;-72
2023/07/09 09:18:21;;;;;;;;;12.00;10.00;;;;;-147.70;100.00;61350.09;5055654;28;45723;-72
2023/07/09 09:21:08;;;;;;;;;10.67;10.00;;;;;-147.70;100.00;61350.09;5057319;28;45559;-72
2023/07/09 09:23:41;;;;;;;;;13.33;10.33;;;;;-147.70;100.00;61350.09;5056882;28;46364;-72
2023/07/09 09:26:25;;;;;;;;;10.67;10.33;;;;;-147.70;100.00;61350.09;5056888;28;45348;-72
2023/07/09 09:28:52;;;;;;;;;11.00;11.00;;;;;-147.70;100.00;61350.09;5057263;28;45352;-72
2023/07/09 09:31:18;;;;;;;;;12.33;11.33;;;;;-147.70;100.00;61350.09;5057072;28;45471;-72
2023/07/09 09:33:46;;;;;;;;;9.00;9.00;;;;;-147.70;100.00;61350.09;5056730;28;46325;-72
2023/07/09 09:36:23;;;;;;;;;13.00;10.00;;;;;-147.70;100.00;61350.09;5057329;28;45297;-72
2023/07/09 09:38:50;;;;;;;;;11.67;7.33;;;;;-147.70;100.00;61350.09;5056889;28;45531;-72
2023/07/09 09:41:30;;;;;;;;;11.00;9.67;;;;;-147.70;100.00;61350.09;5056773;28;45441;-72
2023/07/09 09:43:56;;;;;;;;;12.33;8.33;;;;;-147.70;100.00;61350.09;5056972;28;46727;-72
2023/07/09 09:46:29;;;;;;;;;8.33;7.33;;;;;-147.70;100.00;61350.09;5057070;28;45168;-72
2023/07/09 09:49:00;;;;;;;;;17.33;13.33;;;;;-147.70;100.00;61350.09;5056677;28;45330;-72
2023/07/09 09:51:26;;;;;;;;;10.67;8.33;;;;;-147.70;100.00;61350.09;5056780;28;45214;-71
2023/07/09 09:53:58;;;;;;;;;6.00;6.00;;;;;-147.70;100.00;61350.09;5056744;28;47160;-72
2023/07/09 09:56:29;;;;;;;;;10.67;9.00;;;;;-147.70;100.00;61350.09;5056866;28;45346;-72
2023/07/09 09:58:56;;;;;;;;;10.00;9.67;;;;;-147.70;100.00;61350.09;5057065;28;45363;-72
2023/07/09 10:01:37;;;;;;;;;9.67;9.67;;;;;-147.70;100.00;61350.09;5056763;28;45429;-72
2023/07/09 10:04:04;;;;;;;;;11.33;8.00;;;;;-147.70;100.00;61350.09;5056378;28;46520;-72
2023/07/09 10:06:37;;;;;;;;;9.00;9.00;;;;;-147.70;100.00;61350.09;5056612;28;45306;-71
2023/07/09 10:09:14;;;;;;;;;11.67;9.67;;;;;-147.70;100.00;61350.09;5056701;28;45569;-72
2023/07/09 10:12:02;;;;;;;;;11.00;10.33;;;;;-147.70;100.00;61350.09;5057139;28;45393;-72
2023/07/09 10:14:56;;;;;;;;;14.33;11.00;;;;;-147.70;100.00;61350.09;5056703;28;46339;-72
2023/07/09 10:17:56;;;;;;;;;10.33;8.33;;;;;-147.70;100.00;61350.09;5036033;28;45292;-79
2023/07/09 10:20:24;;;;;;;;;11.33;8.00;;;;;-147.70;100.00;61350.09;5036477;28;45348;-77
2023/07/09 10:22:54;;;;;;;;;9.67;9.67;;;;;-147.70;100.00;61350.09;5036548;28;45363;-72
2023/07/09 10:25:29;;;;;;;;;12.33;10.67;;;;;-147.70;100.00;61350.09;5035416;28;45371;-73
2023/07/09 10:28:31;;;;;;;;;15.33;10.33;;;;;-147.70;100.00;61350.09;5036361;28;45271;-74
2023/07/09 10:31:08;;;;;;;;;8.00;8.00;;;;;-147.70;100.00;61350.09;5039621;28;45389;-79
2023/07/09 10:33:56;;;;;;;;;11.33;10.67;;;;;-147.70;100.00;61350.09;5039588;28;45659;-76
2023/07/09 10:36:35;;;;;;;;;11.00;9.67;;;;;-147.70;100.00;61350.09;5017263;28;46015;-71
2023/07/09 10:39:10;;;;;;;;;9.67;8.67;;;;;-147.70;100.00;61350.09;5017398;28;45442;-71
2023/07/09 10:41:37;;;;;;;;;8.33;8.00;;;;;-147.70;100.00;61350.09;5017686;28;45809;-69
2023/07/09 10:44:15;;;;;;;;;11.33;10.00;;;;;-147.70;100.00;61350.09;5017582;28;45338;-70
2023/07/09 10:46:45;;;;;;;;;10.33;9.00;;;;;-147.70;100.00;61350.09;5017319;28;46356;-69
2023/07/09 10:49:14;;;;;;;;;8.67;8.67;;;;;-147.70;100.00;61350.09;5017329;28;45377;-69
2023/07/09 10:51:50;;;;;;;;;8.33;8.00;;;;;-147.70;100.00;61350.09;5017302;28;45682;-70
2023/07/09 10:54:32;;;;;;;;;15.67;13.67;;;;;-147.70;100.00;61350.09;5017586;28;45424;-70
2023/07/09 10:57:24;;;;;;;;;12.33;12.00;;;;;-147.70;100.00;61350.09;5017262;28;45560;-70
2023/07/09 10:59:50;;;;;;;;;10.00;10.00;;;;;-147.70;100.00;61350.09;4958211;28;45411;-70